Weather at Sanggu Airport

Public forecast

Using degrees Celsius for public forecast. Weather courtesy of forecast.io.

Closest aviation weather report (METAR) to Sanggu Airport

Closest report is Syamsudin Noor International Airport, 106.8 nm (197.7 km) S.

2024/04/24 13:00 (retrieved 39 minutes ago)

WAOO 241300Z 04003KT 9999 FEW020 26/25 Q1009 NOSIG

Closest aviation forecast (TAF) to Sanggu Airport

Closest forecast is Syamsudin Noor International Airport, 106.8 nm (197.7 km) S.

2024/04/24 12:51 (retrieved 48 minutes ago)

TAF WAOO 241100Z 2412/2512 06006KT 9000 SCT017